sensor_id;sensor_type;location;lat;lon;timestamp;pressure;altitude;pressure_sealevel;temperature;humidity
35778;BME280;21899;42.662;23.316;2023-04-25T00:01:20;93687.59;;;10.04;100.00
35778;BME280;21899;42.662;23.316;2023-04-25T00:03:47;93675.00;;;10.04;100.00
35778;BME280;21899;42.662;23.316;2023-04-25T00:06:12;93666.19;;;10.04;100.00
35778;BME280;21899;42.662;23.316;2023-04-25T00:08:38;93657.81;;;10.02;100.00
35778;BME280;21899;42.662;23.316;2023-04-25T00:11:03;93655.47;;;10.07;100.00
35778;BME280;21899;42.662;23.316;2023-04-25T00:13:29;93654.31;;;10.12;100.00
35778;BME280;21899;42.662;23.316;2023-04-25T00:15:55;93636.34;;;10.12;100.00
35778;BME280;21899;42.662;23.316;2023-04-25T00:18:21;93621.38;;;10.18;100.00
35778;BME280;21899;42.662;23.316;2023-04-25T00:20:48;93629.31;;;10.25;100.00
35778;BME280;21899;42.662;23.316;2023-04-25T00:23:14;93626.28;;;10.23;100.00
35778;BME280;21899;42.662;23.316;2023-04-25T00:25:48;93616.56;;;10.03;100.00
35778;BME280;21899;42.662;23.316;2023-04-25T00:28:15;93620.41;;;9.98;100.00
35778;BME280;21899;42.662;23.316;2023-04-25T00:30:42;93618.50;;;9.99;100.00
35778;BME280;21899;42.662;23.316;2023-04-25T00:33:07;93621.94;;;9.99;100.00
35778;BME280;21899;42.662;23.316;2023-04-25T00:35:33;93615.16;;;9.91;100.00
35778;BME280;21899;42.662;23.316;2023-04-25T00:37:59;93624.00;;;9.85;100.00
35778;BME280;21899;42.662;23.316;2023-04-25T00:40:25;93609.94;;;9.77;100.00
35778;BME280;21899;42.662;23.316;2023-04-25T00:42:52;93613.81;;;9.73;100.00
35778;BME280;21899;42.662;23.316;2023-04-25T00:45:18;93605.88;;;9.66;100.00
35778;BME280;21899;42.662;23.316;2023-04-25T00:47:44;93609.38;;;9.59;100.00
35778;BME280;21899;42.662;23.316;2023-04-25T00:50:11;93624.16;;;9.67;100.00
35778;BME280;21899;42.662;23.316;2023-04-25T00:52:41;93617.00;;;9.57;100.00
35778;BME280;21899;42.662;23.316;2023-04-25T00:55:08;93599.91;;;9.51;100.00
35778;BME280;21899;42.662;23.316;2023-04-25T00:57:35;93614.28;;;9.64;100.00
35778;BME280;21899;42.662;23.316;2023-04-25T01:00:01;93603.66;;;9.57;100.00
35778;BME280;21899;42.662;23.316;2023-04-25T01:02:26;93618.44;;;9.65;100.00
35778;BME280;21899;42.662;23.316;2023-04-25T01:04:52;93610.91;;;9.60;100.00
35778;BME280;21899;42.662;23.316;2023-04-25T01:07:18;93602.94;;;9.53;100.00
35778;BME280;21899;42.662;23.316;2023-04-25T01:09:43;93600.28;;;9.53;100.00
35778;BME280;21899;42.662;23.316;2023-04-25T01:12:09;93589.47;;;9.64;100.00
35778;BME280;21899;42.662;23.316;2023-04-25T01:14:34;93583.22;;;9.77;100.00
35778;BME280;21899;42.662;23.316;2023-04-25T01:17:00;93588.94;;;9.79;100.00
35778;BME280;21899;42.662;23.316;2023-04-25T01:19:26;93586.22;;;9.83;100.00
35778;BME280;21899;42.662;23.316;2023-04-25T01:21:52;93576.31;;;9.83;100.00
35778;BME280;21899;42.662;23.316;2023-04-25T01:24:17;93576.97;;;9.91;100.00
35778;BME280;21899;42.662;23.316;2023-04-25T01:26:43;93572.47;;;9.84;100.00
35778;BME280;21899;42.662;23.316;2023-04-25T01:29:19;93573.34;;;9.74;100.00
35778;BME280;21899;42.662;23.316;2023-04-25T01:31:45;93567.38;;;9.60;100.00
35778;BME280;21899;42.662;23.316;2023-04-25T01:34:12;93575.03;;;9.58;100.00
35778;BME280;21899;42.662;23.316;2023-04-25T01:36:37;93595.25;;;9.59;100.00
35778;BME280;21899;42.662;23.316;2023-04-25T01:39:03;93592.19;;;9.60;100.00
35778;BME280;21899;42.662;23.316;2023-04-25T01:41:29;93597.16;;;9.58;100.00
35778;BME280;21899;42.662;23.316;2023-04-25T01:43:55;93588.41;;;9.54;100.00
35778;BME280;21899;42.662;23.316;2023-04-25T01:46:20;93581.94;;;9.55;100.00
35778;BME280;21899;42.662;23.316;2023-04-25T01:48:46;93583.06;;;9.54;100.00
35778;BME280;21899;42.662;23.316;2023-04-25T01:51:12;93596.38;;;9.61;100.00
35778;BME280;21899;42.662;23.316;2023-04-25T01:53:38;93594.94;;;9.53;100.00
35778;BME280;21899;42.662;23.316;2023-04-25T01:56:04;93607.06;;;9.61;100.00
35778;BME280;21899;42.662;23.316;2023-04-25T01:58:30;93601.69;;;9.65;100.00
35778;BME280;21899;42.662;23.316;2023-04-25T02:00:55;93587.19;;;9.62;100.00
35778;BME280;21899;42.662;23.316;2023-04-25T02:03:20;93602.38;;;9.72;100.00
35778;BME280;21899;42.662;23.316;2023-04-25T02:05:46;93593.91;;;9.77;100.00
35778;BME280;21899;42.662;23.316;2023-04-25T02:08:11;93574.56;;;9.66;100.00
35778;BME280;21899;42.662;23.316;2023-04-25T02:10:37;93586.47;;;9.58;100.00
35778;BME280;21899;42.662;23.316;2023-04-25T02:13:02;93586.19;;;9.49;100.00
35778;BME280;21899;42.662;23.316;2023-04-25T02:15:29;93589.56;;;9.57;100.00
35778;BME280;21899;42.662;23.316;2023-04-25T02:17:55;93573.50;;;9.60;100.00
35778;BME280;21899;42.662;23.316;2023-04-25T02:20:21;93572.81;;;9.49;100.00
35778;BME280;21899;42.662;23.316;2023-04-25T02:22:47;93560.25;;;9.46;100.00
35778;BME280;21899;42.662;23.316;2023-04-25T02:25:13;93557.16;;;9.51;100.00
35778;BME280;21899;42.662;23.316;2023-04-25T02:27:38;93563.25;;;9.55;100.00
35778;BME280;21899;42.662;23.316;2023-04-25T02:30:05;93557.94;;;9.52;100.00
35778;BME280;21899;42.662;23.316;2023-04-25T02:32:32;93545.41;;;9.45;100.00
35778;BME280;21899;42.662;23.316;2023-04-25T02:34:57;93556.44;;;9.47;100.00
35778;BME280;21899;42.662;23.316;2023-04-25T02:37:29;93546.50;;;9.48;100.00
35778;BME280;21899;42.662;23.316;2023-04-25T02:39:55;93541.63;;;9.39;100.00
35778;BME280;21899;42.662;23.316;2023-04-25T02:42:20;93556.84;;;9.42;100.00
35778;BME280;21899;42.662;23.316;2023-04-25T02:44:45;93539.38;;;9.34;100.00
35778;BME280;21899;42.662;23.316;2023-04-25T02:47:11;93550.16;;;9.27;100.00
35778;BME280;21899;42.662;23.316;2023-04-25T02:49:36;93542.50;;;9.25;100.00
35778;BME280;21899;42.662;23.316;2023-04-25T02:52:01;93537.97;;;9.22;100.00
35778;BME280;21899;42.662;23.316;2023-04-25T02:54:27;93536.47;;;9.21;100.00
35778;BME280;21899;42.662;23.316;2023-04-25T02:56:52;93526.56;;;9.22;100.00
35778;BME280;21899;42.662;23.316;2023-04-25T02:59:18;93533.41;;;9.23;100.00
35778;BME280;21899;42.662;23.316;2023-04-25T03:01:43;93527.25;;;9.26;100.00
35778;BME280;21899;42.662;23.316;2023-04-25T03:04:08;93533.03;;;9.21;100.00
35778;BME280;21899;42.662;23.316;2023-04-25T03:06:34;93531.91;;;9.18;100.00
35778;BME280;21899;42.662;23.316;2023-04-25T03:08:59;93520.22;;;9.05;100.00
35778;BME280;21899;42.662;23.316;2023-04-25T03:11:25;93516.72;;;9.12;100.00
35778;BME280;21899;42.662;23.316;2023-04-25T03:13:50;93512.88;;;9.13;100.00
35778;BME280;21899;42.662;23.316;2023-04-25T03:16:16;93520.84;;;9.20;100.00
35778;BME280;21899;42.662;23.316;2023-04-25T03:18:41;93522.38;;;9.17;100.00
35778;BME280;21899;42.662;23.316;2023-04-25T03:21:07;93518.53;;;9.22;100.00
35778;BME280;21899;42.662;23.316;2023-04-25T03:23:32;93512.53;;;9.11;100.00
35778;BME280;21899;42.662;23.316;2023-04-25T03:25:57;93509.13;;;9.07;100.00
35778;BME280;21899;42.662;23.316;2023-04-25T03:28:23;93506.13;;;9.01;100.00
35778;BME280;21899;42.662;23.316;2023-04-25T03:30:48;93525.56;;;9.05;100.00
35778;BME280;21899;42.662;23.316;2023-04-25T03:33:14;93514.91;;;9.02;100.00
35778;BME280;21899;42.662;23.316;2023-04-25T03:35:39;93510.31;;;9.02;100.00
35778;BME280;21899;42.662;23.316;2023-04-25T03:38:05;93519.41;;;9.12;100.00
35778;BME280;21899;42.662;23.316;2023-04-25T03:40:30;93525.84;;;9.14;100.00
35778;BME280;21899;42.662;23.316;2023-04-25T03:42:55;93523.81;;;9.25;100.00
35778;BME280;21899;42.662;23.316;2023-04-25T03:45:21;93536.38;;;9.32;100.00
35778;BME280;21899;42.662;23.316;2023-04-25T03:47:46;93512.78;;;9.27;100.00
35778;BME280;21899;42.662;23.316;2023-04-25T03:50:12;93501.34;;;9.23;100.00
35778;BME280;21899;42.662;23.316;2023-04-25T03:52:37;93501.28;;;9.30;100.00
35778;BME280;21899;42.662;23.316;2023-04-25T03:55:03;93516.88;;;9.35;100.00
35778;BME280;21899;42.662;23.316;2023-04-25T03:57:29;93507.78;;;9.29;100.00
35778;BME280;21899;42.662;23.316;2023-04-25T03:59:55;93514.78;;;9.53;100.00
35778;BME280;21899;42.662;23.316;2023-04-25T04:02:20;93524.47;;;9.74;100.00
35778;BME280;21899;42.662;23.316;2023-04-25T04:04:46;93516.81;;;9.76;100.00
35778;BME280;21899;42.662;23.316;2023-04-25T04:07:11;93527.28;;;9.93;100.00
35778;BME280;21899;42.662;23.316;2023-04-25T04:09:36;93521.22;;;9.93;100.00
35778;BME280;21899;42.662;23.316;2023-04-25T04:12:02;93514.38;;;9.88;100.00
35778;BME280;21899;42.662;23.316;2023-04-25T04:14:28;93524.19;;;9.98;100.00
35778;BME280;21899;42.662;23.316;2023-04-25T04:16:53;93516.94;;;9.99;100.00
35778;BME280;21899;42.662;23.316;2023-04-25T04:19:18;93525.56;;;10.13;100.00
35778;BME280;21899;42.662;23.316;2023-04-25T04:21:44;93533.91;;;10.19;100.00
35778;BME280;21899;42.662;23.316;2023-04-25T04:24:09;93530.06;;;10.46;100.00
35778;BME280;21899;42.662;23.316;2023-04-25T04:26:35;93529.97;;;10.80;100.00
35778;BME280;21899;42.662;23.316;2023-04-25T04:29:02;93529.13;;;10.87;100.00
35778;BME280;21899;42.662;23.316;2023-04-25T04:31:29;93526.84;;;10.85;100.00
35778;BME280;21899;42.662;23.316;2023-04-25T04:33:55;93526.94;;;10.78;100.00
35778;BME280;21899;42.662;23.316;2023-04-25T04:36:20;93522.69;;;10.58;100.00
35778;BME280;21899;42.662;23.316;2023-04-25T04:38:48;93529.53;;;10.59;100.00
35778;BME280;21899;42.662;23.316;2023-04-25T04:41:13;93507.66;;;10.37;100.00
35778;BME280;21899;42.662;23.316;2023-04-25T04:43:39;93528.81;;;10.54;100.00
35778;BME280;21899;42.662;23.316;2023-04-25T04:46:05;93523.81;;;10.57;100.00
35778;BME280;21899;42.662;23.316;2023-04-25T04:48:33;93525.91;;;10.45;100.00
35778;BME280;21899;42.662;23.316;2023-04-25T04:51:00;93526.59;;;10.49;100.00
35778;BME280;21899;42.662;23.316;2023-04-25T04:53:25;93535.84;;;10.45;100.00
35778;BME280;21899;42.662;23.316;2023-04-25T04:55:51;93533.09;;;10.22;100.00
35778;BME280;21899;42.662;23.316;2023-04-25T04:58:16;93539.38;;;10.08;100.00
35778;BME280;21899;42.662;23.316;2023-04-25T05:00:42;93532.16;;;10.02;100.00
35778;BME280;21899;42.662;23.316;2023-04-25T05:03:08;93545.50;;;10.05;100.00
35778;BME280;21899;42.662;23.316;2023-04-25T05:05:33;93563.69;;;10.21;100.00
35778;BME280;21899;42.662;23.316;2023-04-25T05:07:59;93545.50;;;10.05;100.00
35778;BME280;21899;42.662;23.316;2023-04-25T05:10:25;93555.91;;;9.96;100.00
35778;BME280;21899;42.662;23.316;2023-04-25T05:12:51;93555.38;;;10.12;100.00
35778;BME280;21899;42.662;23.316;2023-04-25T05:15:16;93566.78;;;10.16;100.00
35778;BME280;21899;42.662;23.316;2023-04-25T05:17:41;93558.38;;;10.17;100.00
35778;BME280;21899;42.662;23.316;2023-04-25T05:20:07;93555.56;;;10.28;100.00
35778;BME280;21899;42.662;23.316;2023-04-25T05:22:36;93551.03;;;10.21;100.00
35778;BME280;21899;42.662;23.316;2023-04-25T05:25:01;93556.91;;;10.13;100.00
35778;BME280;21899;42.662;23.316;2023-04-25T05:27:28;93555.31;;;10.15;100.00
35778;BME280;21899;42.662;23.316;2023-04-25T05:29:54;93549.94;;;10.19;100.00
35778;BME280;21899;42.662;23.316;2023-04-25T05:32:19;93554.06;;;10.23;100.00
35778;BME280;21899;42.662;23.316;2023-04-25T05:34:45;93559.78;;;10.25;100.00
35778;BME280;21899;42.662;23.316;2023-04-25T05:37:10;93557.47;;;10.27;100.00
35778;BME280;21899;42.662;23.316;2023-04-25T05:39:36;93553.63;;;10.28;100.00
35778;BME280;21899;42.662;23.316;2023-04-25T05:42:01;93558.09;;;10.38;100.00
35778;BME280;21899;42.662;23.316;2023-04-25T05:44:27;93556.28;;;10.59;100.00
35778;BME280;21899;42.662;23.316;2023-04-25T05:46:53;93539.28;;;10.45;100.00
35778;BME280;21899;42.662;23.316;2023-04-25T05:49:18;93550.63;;;10.53;100.00
35778;BME280;21899;42.662;23.316;2023-04-25T05:51:44;93560.13;;;10.58;100.00
35778;BME280;21899;42.662;23.316;2023-04-25T05:54:09;93560.69;;;10.72;100.00
35778;BME280;21899;42.662;23.316;2023-04-25T05:56:35;93553.56;;;10.89;100.00
35778;BME280;21899;42.662;23.316;2023-04-25T05:59:00;93563.69;;;11.01;100.00
35778;BME280;21899;42.662;23.316;2023-04-25T06:01:26;93552.47;;;11.09;100.00
35778;BME280;21899;42.662;23.316;2023-04-25T06:03:51;93567.34;;;11.37;100.00
35778;BME280;21899;42.662;23.316;2023-04-25T06:06:17;93568.38;;;11.66;100.00
35778;BME280;21899;42.662;23.316;2023-04-25T06:08:43;93564.28;;;11.81;100.00
35778;BME280;21899;42.662;23.316;2023-04-25T06:11:08;93555.06;;;11.82;100.00
35778;BME280;21899;42.662;23.316;2023-04-25T06:13:34;93554.88;;;11.93;100.00
35778;BME280;21899;42.662;23.316;2023-04-25T06:15:59;93559.75;;;11.98;100.00
35778;BME280;21899;42.662;23.316;2023-04-25T06:18:25;93559.22;;;11.87;100.00
35778;BME280;21899;42.662;23.316;2023-04-25T06:20:50;93560.44;;;11.82;100.00
35778;BME280;21899;42.662;23.316;2023-04-25T06:23:15;93551.56;;;11.62;100.00
35778;BME280;21899;42.662;23.316;2023-04-25T06:25:41;93567.75;;;11.58;100.00
35778;BME280;21899;42.662;23.316;2023-04-25T06:28:06;93567.50;;;11.72;100.00
35778;BME280;21899;42.662;23.316;2023-04-25T06:30:32;93565.19;;;11.74;100.00
35778;BME280;21899;42.662;23.316;2023-04-25T06:32:57;93565.59;;;11.73;100.00
35778;BME280;21899;42.662;23.316;2023-04-25T06:35:22;93560.66;;;11.91;100.00
35778;BME280;21899;42.662;23.316;2023-04-25T06:37:48;93568.03;;;12.26;100.00
35778;BME280;21899;42.662;23.316;2023-04-25T06:40:13;93563.94;;;12.57;100.00
35778;BME280;21899;42.662;23.316;2023-04-25T06:42:38;93569.25;;;12.77;100.00
35778;BME280;21899;42.662;23.316;2023-04-25T06:45:04;93585.69;;;13.15;100.00
35778;BME280;21899;42.662;23.316;2023-04-25T06:47:30;93575.28;;;13.17;100.00
35778;BME280;21899;42.662;23.316;2023-04-25T06:49:55;93580.81;;;13.09;100.00
35778;BME280;21899;42.662;23.316;2023-04-25T06:52:21;93589.72;;;13.06;100.00
35778;BME280;21899;42.662;23.316;2023-04-25T06:54:46;93586.22;;;13.42;100.00
35778;BME280;21899;42.662;23.316;2023-04-25T06:57:12;93581.16;;;13.60;100.00
35778;BME280;21899;42.662;23.316;2023-04-25T06:59:37;93583.91;;;13.72;100.00
35778;BME280;21899;42.662;23.316;2023-04-25T07:02:02;93576.69;;;13.69;100.00
35778;BME280;21899;42.662;23.316;2023-04-25T07:04:28;93570.41;;;13.60;100.00
35778;BME280;21899;42.662;23.316;2023-04-25T07:06:54;93577.34;;;13.57;100.00
35778;BME280;21899;42.662;23.316;2023-04-25T07:09:20;93582.97;;;13.79;100.00
35778;BME280;21899;42.662;23.316;2023-04-25T07:11:45;93589.56;;;13.90;100.00
35778;BME280;21899;42.662;23.316;2023-04-25T07:14:11;93583.97;;;14.13;100.00
35778;BME280;21899;42.662;23.316;2023-04-25T07:16:36;93583.34;;;14.22;100.00
35778;BME280;21899;42.662;23.316;2023-04-25T07:19:01;93582.53;;;14.25;100.00
35778;BME280;21899;42.662;23.316;2023-04-25T07:21:27;93580.53;;;14.13;99.92
35778;BME280;21899;42.662;23.316;2023-04-25T07:23:52;93569.38;;;13.70;98.22
35778;BME280;21899;42.662;23.316;2023-04-25T07:26:18;93567.44;;;13.54;99.50
35778;BME280;21899;42.662;23.316;2023-04-25T07:28:43;93577.28;;;13.61;100.00
35778;BME280;21899;42.662;23.316;2023-04-25T07:31:09;93577.59;;;13.79;100.00
35778;BME280;21899;42.662;23.316;2023-04-25T07:33:34;93565.16;;;13.85;97.39
35778;BME280;21899;42.662;23.316;2023-04-25T07:36:00;93576.94;;;13.59;96.74
35778;BME280;21899;42.662;23.316;2023-04-25T07:38:26;93569.06;;;13.52;99.78
35778;BME280;21899;42.662;23.316;2023-04-25T07:40:51;93564.75;;;13.99;99.54
35778;BME280;21899;42.662;23.316;2023-04-25T07:43:17;93562.88;;;14.12;95.44
35778;BME280;21899;42.662;23.316;2023-04-25T07:45:43;93568.06;;;14.19;96.67
35778;BME280;21899;42.662;23.316;2023-04-25T07:48:09;93574.28;;;14.32;96.90
35778;BME280;21899;42.662;23.316;2023-04-25T07:50:35;93559.19;;;14.34;93.68
35778;BME280;21899;42.662;23.316;2023-04-25T07:53:00;93565.13;;;14.42;92.91
35778;BME280;21899;42.662;23.316;2023-04-25T07:55:26;93564.28;;;14.45;93.71
35778;BME280;21899;42.662;23.316;2023-04-25T07:57:51;93560.19;;;14.41;92.08
35778;BME280;21899;42.662;23.316;2023-04-25T08:00:17;93550.09;;;14.57;90.82
35778;BME280;21899;42.662;23.316;2023-04-25T08:02:43;93551.81;;;14.76;89.74
35778;BME280;21899;42.662;23.316;2023-04-25T08:05:08;93553.78;;;15.13;89.42
35778;BME280;21899;42.662;23.316;2023-04-25T08:07:37;93551.63;;;15.33;86.78
35778;BME280;21899;42.662;23.316;2023-04-25T08:10:03;93554.69;;;15.57;86.35
35778;BME280;21899;42.662;23.316;2023-04-25T08:12:28;93546.84;;;15.37;82.38
35778;BME280;21899;42.662;23.316;2023-04-25T08:14:54;93544.06;;;15.28;83.79
35778;BME280;21899;42.662;23.316;2023-04-25T08:17:19;93547.59;;;15.38;81.78
35778;BME280;21899;42.662;23.316;2023-04-25T08:19:45;93547.31;;;15.48;80.68
35778;BME280;21899;42.662;23.316;2023-04-25T08:22:10;93543.25;;;15.65;80.30
35778;BME280;21899;42.662;23.316;2023-04-25T08:24:35;93542.06;;;15.67;77.71
35778;BME280;21899;42.662;23.316;2023-04-25T08:27:01;93536.44;;;15.74;76.51
35778;BME280;21899;42.662;23.316;2023-04-25T08:29:27;93541.81;;;16.08;75.39
35778;BME280;21899;42.662;23.316;2023-04-25T08:31:53;93532.41;;;16.12;74.20
35778;BME280;21899;42.662;23.316;2023-04-25T08:34:19;93535.84;;;15.91;72.31
35778;BME280;21899;42.662;23.316;2023-04-25T08:36:45;93536.66;;;16.01;73.28
35778;BME280;21899;42.662;23.316;2023-04-25T08:39:11;93542.25;;;16.28;74.79
35778;BME280;21899;42.662;23.316;2023-04-25T08:41:37;93556.50;;;16.07;74.29
35778;BME280;21899;42.662;23.316;2023-04-25T08:44:03;93554.28;;;15.93;75.80
35778;BME280;21899;42.662;23.316;2023-04-25T08:46:30;93543.91;;;15.70;82.37
35778;BME280;21899;42.662;23.316;2023-04-25T08:49:00;93540.72;;;15.37;80.67
35778;BME280;21899;42.662;23.316;2023-04-25T08:51:26;93531.16;;;14.98;79.93
35778;BME280;21899;42.662;23.316;2023-04-25T08:53:56;93541.81;;;15.02;83.28
35778;BME280;21899;42.662;23.316;2023-04-25T08:56:23;93532.44;;;14.94;86.79
35778;BME280;21899;42.662;23.316;2023-04-25T08:58:49;93529.66;;;14.72;87.03
35778;BME280;21899;42.662;23.316;2023-04-25T09:01:18;93522.09;;;14.67;84.81
35778;BME280;21899;42.662;23.316;2023-04-25T09:03:44;93519.41;;;14.67;87.51
35778;BME280;21899;42.662;23.316;2023-04-25T09:06:10;93532.00;;;14.70;88.53
35778;BME280;21899;42.662;23.316;2023-04-25T09:08:37;93526.53;;;14.74;84.41
35778;BME280;21899;42.662;23.316;2023-04-25T09:11:02;93515.41;;;14.59;84.94
35778;BME280;21899;42.662;23.316;2023-04-25T09:13:28;93514.03;;;14.67;84.10
35778;BME280;21899;42.662;23.316;2023-04-25T09:15:56;93514.66;;;14.84;86.06
35778;BME280;21899;42.662;23.316;2023-04-25T09:18:30;93522.72;;;14.96;85.79
35778;BME280;21899;42.662;23.316;2023-04-25T09:20:58;93511.63;;;15.07;84.98
35778;BME280;21899;42.662;23.316;2023-04-25T09:23:30;93512.34;;;15.32;83.65
35778;BME280;21899;42.662;23.316;2023-04-25T09:25:55;93508.03;;;15.47;82.06
35778;BME280;21899;42.662;23.316;2023-04-25T09:28:25;93514.00;;;15.77;82.93
35778;BME280;21899;42.662;23.316;2023-04-25T09:30:55;93513.69;;;15.96;80.54
35778;BME280;21899;42.662;23.316;2023-04-25T09:33:28;93520.28;;;16.17;77.46
35778;BME280;21899;42.662;23.316;2023-04-25T09:35:54;93505.31;;;16.25;73.44
35778;BME280;21899;42.662;23.316;2023-04-25T09:38:26;93513.00;;;16.48;73.02
35778;BME280;21899;42.662;23.316;2023-04-25T09:40:51;93507.91;;;16.50;72.06
35778;BME280;21899;42.662;23.316;2023-04-25T09:43:21;93507.00;;;16.53;73.09
35778;BME280;21899;42.662;23.316;2023-04-25T09:45:48;93513.59;;;16.73;73.23
35778;BME280;21899;42.662;23.316;2023-04-25T09:48:18;93508.06;;;17.26;72.88
35778;BME280;21899;42.662;23.316;2023-04-25T09:50:45;93516.44;;;17.85;70.61
35778;BME280;21899;42.662;23.316;2023-04-25T09:53:10;93510.44;;;17.99;69.74
35778;BME280;21899;42.662;23.316;2023-04-25T09:55:36;93508.63;;;18.14;69.52
35778;BME280;21899;42.662;23.316;2023-04-25T09:58:06;93508.94;;;18.07;68.01
35778;BME280;21899;42.662;23.316;2023-04-25T10:00:34;93508.00;;;17.56;67.61
35778;BME280;21899;42.662;23.316;2023-04-25T10:03:05;93506.06;;;17.57;67.37
35778;BME280;21899;42.662;23.316;2023-04-25T10:05:32;93516.31;;;17.80;68.55
35778;BME280;21899;42.662;23.316;2023-04-25T10:08:02;93513.28;;;17.96;67.99
35778;BME280;21899;42.662;23.316;2023-04-25T10:10:29;93510.72;;;18.01;66.76
35778;BME280;21899;42.662;23.316;2023-04-25T10:12:58;93531.19;;;17.93;62.65
35778;BME280;21899;42.662;23.316;2023-04-25T10:15:24;93547.00;;;17.37;64.87
35778;BME280;21899;42.662;23.316;2023-04-25T10:17:50;93559.75;;;16.57;55.18
35778;BME280;21899;42.662;23.316;2023-04-25T10:20:16;93538.78;;;15.25;64.56
35778;BME280;21899;42.662;23.316;2023-04-25T10:22:44;93519.06;;;14.65;68.74
35778;BME280;21899;42.662;23.316;2023-04-25T10:25:10;93502.59;;;14.51;71.14
35778;BME280;21899;42.662;23.316;2023-04-25T10:27:36;93495.16;;;14.67;75.64
35778;BME280;21899;42.662;23.316;2023-04-25T10:30:04;93499.91;;;14.88;72.63
35778;BME280;21899;42.662;23.316;2023-04-25T10:32:31;93488.88;;;15.20;71.39
35778;BME280;21899;42.662;23.316;2023-04-25T10:34:57;93492.81;;;15.53;71.00
35778;BME280;21899;42.662;23.316;2023-04-25T10:37:23;93485.06;;;15.99;64.46
35778;BME280;21899;42.662;23.316;2023-04-25T10:39:49;93483.72;;;16.46;62.55
35778;BME280;21899;42.662;23.316;2023-04-25T10:42:14;93486.50;;;17.04;58.10
35778;BME280;21899;42.662;23.316;2023-04-25T10:44:40;93498.09;;;17.53;55.77
35778;BME280;21899;42.662;23.316;2023-04-25T10:47:07;93500.16;;;16.91;56.58
35778;BME280;21899;42.662;23.316;2023-04-25T10:52:26;93492.59;;;16.25;58.53
35778;BME280;21899;42.662;23.316;2023-04-25T10:54:55;93504.84;;;16.17;62.98
35778;BME280;21899;42.662;23.316;2023-04-25T10:57:40;93497.66;;;16.02;61.45
35778;BME280;21899;42.662;23.316;2023-04-25T11:00:08;93488.50;;;15.78;62.05
35778;BME280;21899;42.662;23.316;2023-04-25T11:02:58;93495.47;;;15.66;61.52
35778;BME280;21899;42.662;23.316;2023-04-25T11:07:55;93480.75;;;16.01;59.16
35778;BME280;21899;42.662;23.316;2023-04-25T11:10:31;93485.81;;;16.21;53.82
35778;BME280;21899;42.662;23.316;2023-04-25T11:12:58;93482.56;;;16.35;53.58
35778;BME280;21899;42.662;23.316;2023-04-25T11:15:25;93479.09;;;16.47;52.70
35778;BME280;21899;42.662;23.316;2023-04-25T11:17:51;93485.69;;;16.46;52.25
35778;BME280;21899;42.662;23.316;2023-04-25T11:20:17;93475.69;;;16.55;52.73
35778;BME280;21899;42.662;23.316;2023-04-25T11:22:45;93478.91;;;16.72;52.21
35778;BME280;21899;42.662;23.316;2023-04-25T11:25:12;93484.03;;;16.79;50.88
35778;BME280;21899;42.662;23.316;2023-04-25T11:27:48;93476.19;;;16.72;51.77
35778;BME280;21899;42.662;23.316;2023-04-25T11:30:15;93489.19;;;16.34;52.25
35778;BME280;21899;42.662;23.316;2023-04-25T11:32:41;93487.19;;;16.04;53.39
35778;BME280;21899;42.662;23.316;2023-04-25T11:35:08;93472.31;;;15.78;55.31
35778;BME280;21899;42.662;23.316;2023-04-25T11:37:33;93492.75;;;15.66;55.99
35778;BME280;21899;42.662;23.316;2023-04-25T11:40:00;93504.88;;;15.61;57.89
35778;BME280;21899;42.662;23.316;2023-04-25T11:42:25;93506.19;;;15.44;58.70
35778;BME280;21899;42.662;23.316;2023-04-25T11:44:51;93511.94;;;15.21;60.98
35778;BME280;21899;42.662;23.316;2023-04-25T11:47:17;93511.75;;;15.03;61.88
35778;BME280;21899;42.662;23.316;2023-04-25T11:49:42;93514.97;;;14.73;65.78
35778;BME280;21899;42.662;23.316;2023-04-25T11:52:08;93515.38;;;14.34;69.04
35778;BME280;21899;42.662;23.316;2023-04-25T11:54:37;93517.00;;;14.03;75.94
35778;BME280;21899;42.662;23.316;2023-04-25T11:57:03;93513.91;;;13.88;78.28
35778;BME280;21899;42.662;23.316;2023-04-25T11:59:29;93494.53;;;13.81;84.50
35778;BME280;21899;42.662;23.316;2023-04-25T12:01:55;93484.97;;;13.80;87.56
35778;BME280;21899;42.662;23.316;2023-04-25T12:04:22;93490.94;;;14.00;86.85
35778;BME280;21899;42.662;23.316;2023-04-25T12:06:50;93486.88;;;14.08;85.21
35778;BME280;21899;42.662;23.316;2023-04-25T12:09:18;93479.19;;;14.35;82.87
35778;BME280;21899;42.662;23.316;2023-04-25T12:12:02;93479.97;;;14.61;80.35
35778;BME280;21899;42.662;23.316;2023-04-25T12:14:32;93475.75;;;14.85;78.33
35778;BME280;21899;42.662;23.316;2023-04-25T12:16:59;93471.88;;;14.98;74.09
35778;BME280;21899;42.662;23.316;2023-04-25T12:19:25;93484.03;;;15.15;75.44
35778;BME280;21899;42.662;23.316;2023-04-25T12:21:51;93481.41;;;15.37;74.41
35778;BME280;21899;42.662;23.316;2023-04-25T12:24:21;93477.38;;;15.54;72.47
35778;BME280;21899;42.662;23.316;2023-04-25T12:29:20;93458.50;;;15.97;69.12
35778;BME280;21899;42.662;23.316;2023-04-25T12:31:46;93464.59;;;16.10;65.85
35778;BME280;21899;42.662;23.316;2023-04-25T12:34:12;93495.81;;;16.11;63.82
35778;BME280;21899;42.662;23.316;2023-04-25T12:36:37;93505.22;;;15.38;66.44
35778;BME280;21899;42.662;23.316;2023-04-25T12:39:03;93512.69;;;14.47;72.27
35778;BME280;21899;42.662;23.316;2023-04-25T12:41:30;93511.81;;;13.96;75.41
35778;BME280;21899;42.662;23.316;2023-04-25T12:43:55;93541.66;;;13.57;79.83
35778;BME280;21899;42.662;23.316;2023-04-25T12:46:20;93548.03;;;12.98;85.16
35778;BME280;21899;42.662;23.316;2023-04-25T12:48:47;93528.34;;;12.53;89.50
35778;BME280;21899;42.662;23.316;2023-04-25T12:51:13;93532.44;;;12.22;99.25